sensor_id;sensor_type;location;lat;lon;timestamp;temperature;humidity
1361;DHT22;674;45.552;-122.600;2023-06-22T00:00:32;24.30;1.00
1361;DHT22;674;45.552;-122.600;2023-06-22T00:03:00;24.20;1.00
1361;DHT22;674;45.552;-122.600;2023-06-22T00:05:28;24.20;1.00
1361;DHT22;674;45.552;-122.600;2023-06-22T00:07:56;24.20;1.00
1361;DHT22;674;45.552;-122.600;2023-06-22T00:10:24;24.10;1.00
1361;DHT22;674;45.552;-122.600;2023-06-22T00:12:53;24.20;1.00
1361;DHT22;674;45.552;-122.600;2023-06-22T00:15:21;24.10;1.00
1361;DHT22;674;45.552;-122.600;2023-06-22T00:17:49;24.10;1.00
1361;DHT22;674;45.552;-122.600;2023-06-22T00:20:18;24.20;1.00
1361;DHT22;674;45.552;-122.600;2023-06-22T00:22:46;24.30;1.00
1361;DHT22;674;45.552;-122.600;2023-06-22T00:25:15;24.30;1.00
1361;DHT22;674;45.552;-122.600;2023-06-22T00:27:43;24.30;1.00
1361;DHT22;674;45.552;-122.600;2023-06-22T00:30:12;24.20;1.00
1361;DHT22;674;45.552;-122.600;2023-06-22T00:32:40;24.20;1.00
1361;DHT22;674;45.552;-122.600;2023-06-22T00:35:08;24.20;1.00
1361;DHT22;674;45.552;-122.600;2023-06-22T00:37:37;24.20;1.00
1361;DHT22;674;45.552;-122.600;2023-06-22T00:40:11;24.20;1.00
1361;DHT22;674;45.552;-122.600;2023-06-22T00:42:39;24.20;1.00
1361;DHT22;674;45.552;-122.600;2023-06-22T00:45:07;24.20;1.00
1361;DHT22;674;45.552;-122.600;2023-06-22T00:47:36;24.10;1.00
1361;DHT22;674;45.552;-122.600;2023-06-22T00:50:06;24.10;1.00
1361;DHT22;674;45.552;-122.600;2023-06-22T00:52:34;24.10;1.00
1361;DHT22;674;45.552;-122.600;2023-06-22T00:55:02;24.10;1.00
1361;DHT22;674;45.552;-122.600;2023-06-22T00:57:31;24.10;1.00
1361;DHT22;674;45.552;-122.600;2023-06-22T00:59:59;24.10;1.00
1361;DHT22;674;45.552;-122.600;2023-06-22T01:02:27;24.10;1.00
1361;DHT22;674;45.552;-122.600;2023-06-22T01:04:57;24.00;1.00
1361;DHT22;674;45.552;-122.600;2023-06-22T01:07:34;24.00;1.00
1361;DHT22;674;45.552;-122.600;2023-06-22T01:13:01;24.00;1.00
1361;DHT22;674;45.552;-122.600;2023-06-22T01:15:37;24.10;1.00
1361;DHT22;674;45.552;-122.600;2023-06-22T01:18:07;24.10;1.00
1361;DHT22;674;45.552;-122.600;2023-06-22T01:20:37;24.10;1.00
1361;DHT22;674;45.552;-122.600;2023-06-22T01:23:10;24.00;1.00
1361;DHT22;674;45.552;-122.600;2023-06-22T01:30:45;24.00;1.00
1361;DHT22;674;45.552;-122.600;2023-06-22T01:33:13;24.10;1.00
1361;DHT22;674;45.552;-122.600;2023-06-22T01:35:42;24.00;1.00
1361;DHT22;674;45.552;-122.600;2023-06-22T01:38:10;24.00;1.00
1361;DHT22;674;45.552;-122.600;2023-06-22T01:40:39;24.00;1.00
1361;DHT22;674;45.552;-122.600;2023-06-22T01:43:07;24.00;1.00
1361;DHT22;674;45.552;-122.600;2023-06-22T01:45:35;23.90;1.00
1361;DHT22;674;45.552;-122.600;2023-06-22T01:48:03;23.90;1.00
1361;DHT22;674;45.552;-122.600;2023-06-22T01:50:32;23.90;1.00
1361;DHT22;674;45.552;-122.600;2023-06-22T01:53:00;23.90;1.00
1361;DHT22;674;45.552;-122.600;2023-06-22T01:55:28;23.70;1.00
1361;DHT22;674;45.552;-122.600;2023-06-22T01:57:56;23.70;1.00
1361;DHT22;674;45.552;-122.600;2023-06-22T02:00:24;23.70;1.00
1361;DHT22;674;45.552;-122.600;2023-06-22T02:02:56;23.70;1.00
1361;DHT22;674;45.552;-122.600;2023-06-22T02:05:26;23.60;1.00
1361;DHT22;674;45.552;-122.600;2023-06-22T02:08:00;23.60;1.00
1361;DHT22;674;45.552;-122.600;2023-06-22T02:10:29;23.60;1.00
1361;DHT22;674;45.552;-122.600;2023-06-22T02:12:59;23.60;1.00
1361;DHT22;674;45.552;-122.600;2023-06-22T02:15:28;23.60;1.00
1361;DHT22;674;45.552;-122.600;2023-06-22T02:17:56;23.60;1.00
1361;DHT22;674;45.552;-122.600;2023-06-22T02:20:24;23.60;1.00
1361;DHT22;674;45.552;-122.600;2023-06-22T02:22:53;23.60;1.00
1361;DHT22;674;45.552;-122.600;2023-06-22T02:25:21;23.50;1.00
1361;DHT22;674;45.552;-122.600;2023-06-22T02:27:49;23.50;1.00
1361;DHT22;674;45.552;-122.600;2023-06-22T02:30:17;23.40;1.00
1361;DHT22;674;45.552;-122.600;2023-06-22T02:32:45;23.40;1.00
1361;DHT22;674;45.552;-122.600;2023-06-22T02:35:14;23.40;1.00
1361;DHT22;674;45.552;-122.600;2023-06-22T02:37:42;23.30;1.00
1361;DHT22;674;45.552;-122.600;2023-06-22T02:40:10;23.20;1.00
1361;DHT22;674;45.552;-122.600;2023-06-22T02:42:38;23.20;1.00
1361;DHT22;674;45.552;-122.600;2023-06-22T02:45:07;23.20;1.00
1361;DHT22;674;45.552;-122.600;2023-06-22T02:47:35;23.10;1.00
1361;DHT22;674;45.552;-122.600;2023-06-22T02:50:03;23.10;1.00
1361;DHT22;674;45.552;-122.600;2023-06-22T02:52:31;23.10;1.00
1361;DHT22;674;45.552;-122.600;2023-06-22T02:54:59;23.00;1.00
1361;DHT22;674;45.552;-122.600;2023-06-22T02:57:28;23.00;1.00
1361;DHT22;674;45.552;-122.600;2023-06-22T02:59:56;23.00;1.00
1361;DHT22;674;45.552;-122.600;2023-06-22T03:02:24;22.90;1.00
1361;DHT22;674;45.552;-122.600;2023-06-22T03:04:54;22.80;1.00
1361;DHT22;674;45.552;-122.600;2023-06-22T03:07:22;22.70;1.00
1361;DHT22;674;45.552;-122.600;2023-06-22T03:09:50;22.60;1.00
1361;DHT22;674;45.552;-122.600;2023-06-22T03:12:18;22.60;1.00
1361;DHT22;674;45.552;-122.600;2023-06-22T03:14:46;22.50;1.00
1361;DHT22;674;45.552;-122.600;2023-06-22T03:17:14;22.50;1.00
1361;DHT22;674;45.552;-122.600;2023-06-22T03:19:42;22.40;1.00
1361;DHT22;674;45.552;-122.600;2023-06-22T03:22:10;22.40;1.00
1361;DHT22;674;45.552;-122.600;2023-06-22T03:24:40;22.30;1.00
1361;DHT22;674;45.552;-122.600;2023-06-22T03:27:08;22.30;1.00
1361;DHT22;674;45.552;-122.600;2023-06-22T03:29:37;22.20;1.00
1361;DHT22;674;45.552;-122.600;2023-06-22T03:32:05;22.20;1.00
1361;DHT22;674;45.552;-122.600;2023-06-22T03:34:33;22.10;1.00
1361;DHT22;674;45.552;-122.600;2023-06-22T03:37:03;22.00;1.00
1361;DHT22;674;45.552;-122.600;2023-06-22T03:39:31;22.00;1.00
1361;DHT22;674;45.552;-122.600;2023-06-22T03:41:59;21.90;1.00
1361;DHT22;674;45.552;-122.600;2023-06-22T03:44:28;21.80;1.00
1361;DHT22;674;45.552;-122.600;2023-06-22T03:46:56;21.70;1.00
1361;DHT22;674;45.552;-122.600;2023-06-22T03:49:24;21.60;1.00
1361;DHT22;674;45.552;-122.600;2023-06-22T03:51:52;21.60;1.00
1361;DHT22;674;45.552;-122.600;2023-06-22T03:54:20;21.50;1.00
1361;DHT22;674;45.552;-122.600;2023-06-22T03:56:48;21.40;1.00
1361;DHT22;674;45.552;-122.600;2023-06-22T03:59:16;21.40;1.00
1361;DHT22;674;45.552;-122.600;2023-06-22T04:01:45;21.30;1.00
1361;DHT22;674;45.552;-122.600;2023-06-22T04:04:13;21.20;1.00
1361;DHT22;674;45.552;-122.600;2023-06-22T04:06:42;21.20;1.00
1361;DHT22;674;45.552;-122.600;2023-06-22T04:09:10;21.10;1.00
1361;DHT22;674;45.552;-122.600;2023-06-22T04:11:38;21.00;1.00
1361;DHT22;674;45.552;-122.600;2023-06-22T04:14:06;21.00;1.00
1361;DHT22;674;45.552;-122.600;2023-06-22T04:16:34;20.90;1.00
1361;DHT22;674;45.552;-122.600;2023-06-22T04:19:02;20.80;1.00
1361;DHT22;674;45.552;-122.600;2023-06-22T04:21:31;20.80;1.00
1361;DHT22;674;45.552;-122.600;2023-06-22T04:23:59;20.70;1.00
1361;DHT22;674;45.552;-122.600;2023-06-22T04:26:27;20.70;1.00
1361;DHT22;674;45.552;-122.600;2023-06-22T04:28:55;20.60;1.00
1361;DHT22;674;45.552;-122.600;2023-06-22T04:31:23;20.60;1.00
1361;DHT22;674;45.552;-122.600;2023-06-22T04:33:59;20.50;1.00
1361;DHT22;674;45.552;-122.600;2023-06-22T04:36:34;20.40;1.00
1361;DHT22;674;45.552;-122.600;2023-06-22T04:39:05;20.30;1.00
1361;DHT22;674;45.552;-122.600;2023-06-22T04:41:34;20.30;1.00
1361;DHT22;674;45.552;-122.600;2023-06-22T04:44:12;20.20;1.00
1361;DHT22;674;45.552;-122.600;2023-06-22T04:46:40;20.20;1.00
1361;DHT22;674;45.552;-122.600;2023-06-22T04:49:09;20.20;1.00
1361;DHT22;674;45.552;-122.600;2023-06-22T04:51:40;20.20;1.00
1361;DHT22;674;45.552;-122.600;2023-06-22T04:54:09;20.10;1.00
1361;DHT22;674;45.552;-122.600;2023-06-22T04:56:37;20.10;1.00
1361;DHT22;674;45.552;-122.600;2023-06-22T04:59:08;20.00;1.00
1361;DHT22;674;45.552;-122.600;2023-06-22T05:01:40;20.00;1.00
1361;DHT22;674;45.552;-122.600;2023-06-22T05:04:08;19.90;1.00
1361;DHT22;674;45.552;-122.600;2023-06-22T05:06:37;19.80;1.00
1361;DHT22;674;45.552;-122.600;2023-06-22T05:09:07;19.80;1.00
1361;DHT22;674;45.552;-122.600;2023-06-22T05:11:35;19.80;1.00
1361;DHT22;674;45.552;-122.600;2023-06-22T05:14:03;19.70;1.00
1361;DHT22;674;45.552;-122.600;2023-06-22T05:16:31;19.70;1.00
1361;DHT22;674;45.552;-122.600;2023-06-22T05:18:59;19.70;1.00
1361;DHT22;674;45.552;-122.600;2023-06-22T05:21:27;19.70;1.00
1361;DHT22;674;45.552;-122.600;2023-06-22T05:23:56;19.60;1.00
1361;DHT22;674;45.552;-122.600;2023-06-22T05:26:27;19.60;1.00
1361;DHT22;674;45.552;-122.600;2023-06-22T05:28:56;19.60;1.00
1361;DHT22;674;45.552;-122.600;2023-06-22T05:31:25;19.50;1.00
1361;DHT22;674;45.552;-122.600;2023-06-22T05:33:54;19.40;1.00
1361;DHT22;674;45.552;-122.600;2023-06-22T05:36:22;19.40;1.00
1361;DHT22;674;45.552;-122.600;2023-06-22T05:38:53;19.30;1.00
1361;DHT22;674;45.552;-122.600;2023-06-22T05:41:21;19.30;1.00
1361;DHT22;674;45.552;-122.600;2023-06-22T05:43:50;19.30;1.00
1361;DHT22;674;45.552;-122.600;2023-06-22T05:46:18;19.20;1.00
1361;DHT22;674;45.552;-122.600;2023-06-22T05:48:47;19.20;1.00
1361;DHT22;674;45.552;-122.600;2023-06-22T05:51:15;19.10;1.00
1361;DHT22;674;45.552;-122.600;2023-06-22T05:53:43;19.10;1.00
1361;DHT22;674;45.552;-122.600;2023-06-22T05:56:12;19.00;1.00
1361;DHT22;674;45.552;-122.600;2023-06-22T05:58:40;19.00;1.00
1361;DHT22;674;45.552;-122.600;2023-06-22T06:01:08;19.00;1.00
1361;DHT22;674;45.552;-122.600;2023-06-22T06:03:36;19.00;1.00
1361;DHT22;674;45.552;-122.600;2023-06-22T06:06:08;18.90;1.00
1361;DHT22;674;45.552;-122.600;2023-06-22T06:08:38;18.90;1.00
1361;DHT22;674;45.552;-122.600;2023-06-22T06:11:06;18.80;1.00
1361;DHT22;674;45.552;-122.600;2023-06-22T06:13:35;18.80;1.00
1361;DHT22;674;45.552;-122.600;2023-06-22T06:16:03;18.70;1.00
1361;DHT22;674;45.552;-122.600;2023-06-22T06:18:31;18.70;1.00
1361;DHT22;674;45.552;-122.600;2023-06-22T06:20:59;18.60;1.00
1361;DHT22;674;45.552;-122.600;2023-06-22T06:23:27;18.60;1.00
1361;DHT22;674;45.552;-122.600;2023-06-22T06:25:55;18.60;1.00
1361;DHT22;674;45.552;-122.600;2023-06-22T06:28:24;18.50;1.00
1361;DHT22;674;45.552;-122.600;2023-06-22T06:30:52;18.50;1.00
1361;DHT22;674;45.552;-122.600;2023-06-22T06:33:20;18.50;1.00
1361;DHT22;674;45.552;-122.600;2023-06-22T06:35:51;18.50;1.00
1361;DHT22;674;45.552;-122.600;2023-06-22T06:38:19;18.40;1.00
1361;DHT22;674;45.552;-122.600;2023-06-22T06:40:48;18.40;1.00
1361;DHT22;674;45.552;-122.600;2023-06-22T06:43:16;18.30;1.00
1361;DHT22;674;45.552;-122.600;2023-06-22T06:45:44;18.30;1.00
1361;DHT22;674;45.552;-122.600;2023-06-22T06:48:13;18.20;1.00
1361;DHT22;674;45.552;-122.600;2023-06-22T06:50:41;18.20;1.00
1361;DHT22;674;45.552;-122.600;2023-06-22T06:53:11;18.20;1.00
1361;DHT22;674;45.552;-122.600;2023-06-22T06:55:39;18.10;1.00
1361;DHT22;674;45.552;-122.600;2023-06-22T06:58:08;18.10;1.00
1361;DHT22;674;45.552;-122.600;2023-06-22T07:00:37;18.00;1.00
1361;DHT22;674;45.552;-122.600;2023-06-22T07:03:05;18.00;1.00
1361;DHT22;674;45.552;-122.600;2023-06-22T07:05:34;18.00;1.00
1361;DHT22;674;45.552;-122.600;2023-06-22T07:08:03;18.00;1.00
1361;DHT22;674;45.552;-122.600;2023-06-22T07:10:31;17.90;1.00
1361;DHT22;674;45.552;-122.600;2023-06-22T07:12:59;17.90;1.00
1361;DHT22;674;45.552;-122.600;2023-06-22T07:15:27;17.80;1.00
1361;DHT22;674;45.552;-122.600;2023-06-22T07:17:55;17.80;1.00
1361;DHT22;674;45.552;-122.600;2023-06-22T07:20:25;17.80;1.00
1361;DHT22;674;45.552;-122.600;2023-06-22T07:22:55;17.70;1.00
1361;DHT22;674;45.552;-122.600;2023-06-22T07:25:23;17.60;1.00
1361;DHT22;674;45.552;-122.600;2023-06-22T07:27:58;17.60;1.00
1361;DHT22;674;45.552;-122.600;2023-06-22T07:30:26;17.60;1.00
1361;DHT22;674;45.552;-122.600;2023-06-22T07:32:55;17.50;1.00
1361;DHT22;674;45.552;-122.600;2023-06-22T07:35:23;17.50;1.00
1361;DHT22;674;45.552;-122.600;2023-06-22T07:37:52;17.50;1.00
1361;DHT22;674;45.552;-122.600;2023-06-22T07:40:20;17.40;1.00
1361;DHT22;674;45.552;-122.600;2023-06-22T07:42:48;17.40;1.00
1361;DHT22;674;45.552;-122.600;2023-06-22T07:45:19;17.40;1.00
1361;DHT22;674;45.552;-122.600;2023-06-22T07:47:47;17.30;1.00
1361;DHT22;674;45.552;-122.600;2023-06-22T07:50:15;17.30;1.00
1361;DHT22;674;45.552;-122.600;2023-06-22T07:52:43;17.20;1.00
1361;DHT22;674;45.552;-122.600;2023-06-22T07:55:11;17.20;1.00
1361;DHT22;674;45.552;-122.600;2023-06-22T07:57:39;17.20;1.00
1361;DHT22;674;45.552;-122.600;2023-06-22T08:00:09;17.20;1.00
1361;DHT22;674;45.552;-122.600;2023-06-22T08:02:44;17.20;1.00
1361;DHT22;674;45.552;-122.600;2023-06-22T08:05:12;17.10;1.00
1361;DHT22;674;45.552;-122.600;2023-06-22T08:07:48;17.10;1.00
1361;DHT22;674;45.552;-122.600;2023-06-22T08:10:16;17.10;1.00
1361;DHT22;674;45.552;-122.600;2023-06-22T08:12:45;17.10;1.00
1361;DHT22;674;45.552;-122.600;2023-06-22T08:15:13;17.00;1.00
1361;DHT22;674;45.552;-122.600;2023-06-22T08:17:41;17.00;1.00
1361;DHT22;674;45.552;-122.600;2023-06-22T08:20:09;16.90;1.00
1361;DHT22;674;45.552;-122.600;2023-06-22T08:22:40;16.90;1.00
1361;DHT22;674;45.552;-122.600;2023-06-22T08:25:09;16.80;1.00
1361;DHT22;674;45.552;-122.600;2023-06-22T08:27:37;16.80;1.00
1361;DHT22;674;45.552;-122.600;2023-06-22T08:30:06;16.80;1.00
1361;DHT22;674;45.552;-122.600;2023-06-22T08:32:35;16.70;1.00
1361;DHT22;674;45.552;-122.600;2023-06-22T08:35:03;16.70;1.00
1361;DHT22;674;45.552;-122.600;2023-06-22T08:37:31;16.70;1.00
1361;DHT22;674;45.552;-122.600;2023-06-22T08:40:03;16.70;1.00
1361;DHT22;674;45.552;-122.600;2023-06-22T08:42:36;16.60;1.00
1361;DHT22;674;45.552;-122.600;2023-06-22T08:45:05;16.60;1.00
1361;DHT22;674;45.552;-122.600;2023-06-22T08:47:34;16.60;1.00
1361;DHT22;674;45.552;-122.600;2023-06-22T08:50:02;16.50;1.00
1361;DHT22;674;45.552;-122.600;2023-06-22T08:52:36;16.40;1.00
1361;DHT22;674;45.552;-122.600;2023-06-22T08:55:05;16.40;1.00
1361;DHT22;674;45.552;-122.600;2023-06-22T08:57:33;16.40;1.00
1361;DHT22;674;45.552;-122.600;2023-06-22T09:00:02;16.40;1.00
1361;DHT22;674;45.552;-122.600;2023-06-22T09:02:32;16.30;1.00
1361;DHT22;674;45.552;-122.600;2023-06-22T09:05:02;16.30;1.00
1361;DHT22;674;45.552;-122.600;2023-06-22T09:07:31;16.20;1.00
1361;DHT22;674;45.552;-122.600;2023-06-22T09:09:59;16.20;1.00
1361;DHT22;674;45.552;-122.600;2023-06-22T09:12:30;16.20;1.00
1361;DHT22;674;45.552;-122.600;2023-06-22T09:15:01;16.20;1.00
1361;DHT22;674;45.552;-122.600;2023-06-22T09:17:30;16.10;1.00
1361;DHT22;674;45.552;-122.600;2023-06-22T09:19:58;16.00;1.00
1361;DHT22;674;45.552;-122.600;2023-06-22T09:22:27;16.00;1.00
1361;DHT22;674;45.552;-122.600;2023-06-22T09:24:56;16.00;1.00
1361;DHT22;674;45.552;-122.600;2023-06-22T09:27:25;15.90;1.00
1361;DHT22;674;45.552;-122.600;2023-06-22T09:29:53;15.90;1.00
1361;DHT22;674;45.552;-122.600;2023-06-22T09:32:21;15.80;1.00
1361;DHT22;674;45.552;-122.600;2023-06-22T09:34:49;15.80;1.00
1361;DHT22;674;45.552;-122.600;2023-06-22T09:37:17;15.70;1.00
1361;DHT22;674;45.552;-122.600;2023-06-22T09:39:45;15.70;1.00
1361;DHT22;674;45.552;-122.600;2023-06-22T09:42:13;15.70;1.00
1361;DHT22;674;45.552;-122.600;2023-06-22T09:44:42;15.60;1.00
1361;DHT22;674;45.552;-122.600;2023-06-22T09:47:10;15.60;1.00
1361;DHT22;674;45.552;-122.600;2023-06-22T09:49:38;15.50;1.00
1361;DHT22;674;45.552;-122.600;2023-06-22T09:52:09;15.40;1.00
1361;DHT22;674;45.552;-122.600;2023-06-22T09:54:39;15.40;1.00
1361;DHT22;674;45.552;-122.600;2023-06-22T09:57:07;15.30;1.00
1361;DHT22;674;45.552;-122.600;2023-06-22T09:59:35;15.30;1.00
1361;DHT22;674;45.552;-122.600;2023-06-22T10:02:03;15.20;1.00
1361;DHT22;674;45.552;-122.600;2023-06-22T10:04:32;15.20;1.00
1361;DHT22;674;45.552;-122.600;2023-06-22T10:07:01;15.10;1.00
1361;DHT22;674;45.552;-122.600;2023-06-22T10:09:29;15.10;1.00
1361;DHT22;674;45.552;-122.600;2023-06-22T10:11:57;15.00;1.00
1361;DHT22;674;45.552;-122.600;2023-06-22T10:14:25;15.00;1.00
1361;DHT22;674;45.552;-122.600;2023-06-22T10:16:54;15.00;1.00
1361;DHT22;674;45.552;-122.600;2023-06-22T10:19:25;15.00;1.00
1361;DHT22;674;45.552;-122.600;2023-06-22T10:21:54;15.00;1.00
1361;DHT22;674;45.552;-122.600;2023-06-22T10:24:23;14.90;1.00
1361;DHT22;674;45.552;-122.600;2023-06-22T10:26:51;14.90;1.00
1361;DHT22;674;45.552;-122.600;2023-06-22T10:29:19;14.80;1.00
1361;DHT22;674;45.552;-122.600;2023-06-22T10:31:48;14.80;1.00
1361;DHT22;674;45.552;-122.600;2023-06-22T10:34:16;14.80;1.00
1361;DHT22;674;45.552;-122.600;2023-06-22T10:36:44;14.80;1.00
1361;DHT22;674;45.552;-122.600;2023-06-22T10:39:16;14.70;1.00
1361;DHT22;674;45.552;-122.600;2023-06-22T10:41:44;14.70;1.00
1361;DHT22;674;45.552;-122.600;2023-06-22T10:44:12;14.60;1.00
1361;DHT22;674;45.552;-122.600;2023-06-22T10:46:41;14.60;1.00
1361;DHT22;674;45.552;-122.600;2023-06-22T10:49:09;14.60;1.00
1361;DHT22;674;45.552;-122.600;2023-06-22T10:51:37;14.50;1.00
1361;DHT22;674;45.552;-122.600;2023-06-22T10:54:05;14.60;1.00
1361;DHT22;674;45.552;-122.600;2023-06-22T10:56:33;14.50;1.00
1361;DHT22;674;45.552;-122.600;2023-06-22T10:59:01;14.50;1.00
1361;DHT22;674;45.552;-122.600;2023-06-22T11:01:29;14.50;1.00
1361;DHT22;674;45.552;-122.600;2023-06-22T11:04:03;14.40;1.00
1361;DHT22;674;45.552;-122.600;2023-06-22T11:06:32;14.40;1.00
1361;DHT22;674;45.552;-122.600;2023-06-22T11:09:00;14.40;1.00
1361;DHT22;674;45.552;-122.600;2023-06-22T11:11:43;14.40;1.00
1361;DHT22;674;45.552;-122.600;2023-06-22T11:14:11;14.30;1.00
1361;DHT22;674;45.552;-122.600;2023-06-22T11:16:39;14.30;1.00
1361;DHT22;674;45.552;-122.600;2023-06-22T11:19:07;14.30;1.00
1361;DHT22;674;45.552;-122.600;2023-06-22T11:21:36;14.20;1.00
1361;DHT22;674;45.552;-122.600;2023-06-22T11:24:04;14.20;1.00
1361;DHT22;674;45.552;-122.600;2023-06-22T11:26:32;14.20;1.00
1361;DHT22;674;45.552;-122.600;2023-06-22T11:29:01;14.20;1.00
1361;DHT22;674;45.552;-122.600;2023-06-22T11:31:32;14.20;1.00
1361;DHT22;674;45.552;-122.600;2023-06-22T11:34:01;14.20;1.00
1361;DHT22;674;45.552;-122.600;2023-06-22T11:36:29;14.20;1.00
1361;DHT22;674;45.552;-122.600;2023-06-22T11:39:00;14.10;1.00
1361;DHT22;674;45.552;-122.600;2023-06-22T11:41:29;14.10;1.00
1361;DHT22;674;45.552;-122.600;2023-06-22T11:43:57;14.10;1.00
1361;DHT22;674;45.552;-122.600;2023-06-22T11:46:26;14.00;1.00
1361;DHT22;674;45.552;-122.600;2023-06-22T11:48:54;14.00;1.00
1361;DHT22;674;45.552;-122.600;2023-06-22T11:51:22;14.00;1.00
1361;DHT22;674;45.552;-122.600;2023-06-22T11:53:50;14.00;1.00
1361;DHT22;674;45.552;-122.600;2023-06-22T11:56:18;13.90;1.00
1361;DHT22;674;45.552;-122.600;2023-06-22T11:58:46;13.90;1.00
1361;DHT22;674;45.552;-122.600;2023-06-22T12:01:14;13.90;1.00
1361;DHT22;674;45.552;-122.600;2023-06-22T12:03:43;13.90;1.00
1361;DHT22;674;45.552;-122.600;2023-06-22T12:06:11;13.80;1.00
1361;DHT22;674;45.552;-122.600;2023-06-22T12:08:39;13.80;1.00
1361;DHT22;674;45.552;-122.600;2023-06-22T12:11:07;13.80;1.00
1361;DHT22;674;45.552;-122.600;2023-06-22T12:13:36;13.80;1.00
1361;DHT22;674;45.552;-122.600;2023-06-22T12:16:04;13.80;1.00
1361;DHT22;674;45.552;-122.600;2023-06-22T12:18:32;13.80;1.00
1361;DHT22;674;45.552;-122.600;2023-06-22T12:21:00;13.70;1.00
1361;DHT22;674;45.552;-122.600;2023-06-22T12:23:28;13.70;1.00
1361;DHT22;674;45.552;-122.600;2023-06-22T12:25:56;13.70;1.00
1361;DHT22;674;45.552;-122.600;2023-06-22T12:28:25;13.70;1.00
1361;DHT22;674;45.552;-122.600;2023-06-22T12:30:53;13.60;2.90
1361;DHT22;674;45.552;-122.600;2023-06-22T12:33:21;13.60;3.70
1361;DHT22;674;45.552;-122.600;2023-06-22T12:35:49;13.60;5.00
1361;DHT22;674;45.552;-122.600;2023-06-22T12:38:18;13.60;6.70
1361;DHT22;674;45.552;-122.600;2023-06-22T12:40:46;13.60;8.80
1361;DHT22;674;45.552;-122.600;2023-06-22T12:43:14;13.60;10.50
1361;DHT22;674;45.552;-122.600;2023-06-22T12:45:43;13.60;13.70
1361;DHT22;674;45.552;-122.600;2023-06-22T12:48:11;13.60;16.80
1361;DHT22;674;45.552;-122.600;2023-06-22T12:50:40;13.60;18.10
1361;DHT22;674;45.552;-122.600;2023-06-22T12:53:08;13.60;19.70
1361;DHT22;674;45.552;-122.600;2023-06-22T12:55:36;13.60;21.20
1361;DHT22;674;45.552;-122.600;2023-06-22T12:58:07;13.60;23.40
1361;DHT22;674;45.552;-122.600;2023-06-22T13:00:35;13.60;28.00
1361;DHT22;674;45.552;-122.600;2023-06-22T13:03:03;13.50;33.50
1361;DHT22;674;45.552;-122.600;2023-06-22T13:05:32;13.60;37.70
1361;DHT22;674;45.552;-122.600;2023-06-22T13:08:02;13.60;40.50
1361;DHT22;674;45.552;-122.600;2023-06-22T13:10:31;13.60;45.90
1361;DHT22;674;45.552;-122.600;2023-06-22T13:12:59;13.70;50.20
1361;DHT22;674;45.552;-122.600;2023-06-22T13:15:30;13.70;50.60
1361;DHT22;674;45.552;-122.600;2023-06-22T13:17:59;13.80;50.90
1361;DHT22;674;45.552;-122.600;2023-06-22T13:20:28;13.70;51.20
1361;DHT22;674;45.552;-122.600;2023-06-22T13:22:56;13.90;52.90
1361;DHT22;674;45.552;-122.600;2023-06-22T13:25:24;13.80;46.00
1361;DHT22;674;45.552;-122.600;2023-06-22T13:27:54;13.90;34.80
1361;DHT22;674;45.552;-122.600;2023-06-22T13:30:22;14.00;31.10
1361;DHT22;674;45.552;-122.600;2023-06-22T13:32:51;14.00;28.10
1361;DHT22;674;45.552;-122.600;2023-06-22T13:35:19;14.00;25.00
1361;DHT22;674;45.552;-122.600;2023-06-22T13:37:47;14.00;23.70
1361;DHT22;674;45.552;-122.600;2023-06-22T13:40:15;14.10;29.20
1361;DHT22;674;45.552;-122.600;2023-06-22T13:42:43;14.10;31.30
1361;DHT22;674;45.552;-122.600;2023-06-22T13:45:11;14.20;30.10
1361;DHT22;674;45.552;-122.600;2023-06-22T13:47:39;14.20;22.50
1361;DHT22;674;45.552;-122.600;2023-06-22T13:50:08;14.20;23.80
1361;DHT22;674;45.552;-122.600;2023-06-22T13:52:36;14.30;19.90
1361;DHT22;674;45.552;-122.600;2023-06-22T13:55:04;14.40;9.90
1361;DHT22;674;45.552;-122.600;2023-06-22T13:57:34;14.50;5.50
1361;DHT22;674;45.552;-122.600;2023-06-22T14:00:03;14.60;1.00
1361;DHT22;674;45.552;-122.600;2023-06-22T14:02:33;14.60;1.00
1361;DHT22;674;45.552;-122.600;2023-06-22T14:05:01;14.70;8.00
1361;DHT22;674;45.552;-122.600;2023-06-22T14:07:30;14.70;1.00
1361;DHT22;674;45.552;-122.600;2023-06-22T14:09:59;14.90;1.00
1361;DHT22;674;45.552;-122.600;2023-06-22T14:12:27;14.90;1.00
1361;DHT22;674;45.552;-122.600;2023-06-22T14:14:56;15.10;1.00
1361;DHT22;674;45.552;-122.600;2023-06-22T14:17:24;15.10;1.00
1361;DHT22;674;45.552;-122.600;2023-06-22T14:19:53;15.20;1.00
1361;DHT22;674;45.552;-122.600;2023-06-22T14:22:22;15.40;1.00
1361;DHT22;674;45.552;-122.600;2023-06-22T14:24:50;15.40;1.00
1361;DHT22;674;45.552;-122.600;2023-06-22T14:27:19;15.40;1.00
1361;DHT22;674;45.552;-122.600;2023-06-22T14:29:47;15.50;1.00
1361;DHT22;674;45.552;-122.600;2023-06-22T14:32:15;15.60;1.00
1361;DHT22;674;45.552;-122.600;2023-06-22T14:34:43;15.70;1.00
1361;DHT22;674;45.552;-122.600;2023-06-22T14:37:11;15.80;1.00
1361;DHT22;674;45.552;-122.600;2023-06-22T14:39:40;15.80;1.00
1361;DHT22;674;45.552;-122.600;2023-06-22T14:42:08;15.90;1.00
1361;DHT22;674;45.552;-122.600;2023-06-22T14:44:36;16.00;1.00
1361;DHT22;674;45.552;-122.600;2023-06-22T14:47:05;16.10;1.00
1361;DHT22;674;45.552;-122.600;2023-06-22T14:49:33;16.20;1.00
1361;DHT22;674;45.552;-122.600;2023-06-22T14:52:01;16.20;1.00
1361;DHT22;674;45.552;-122.600;2023-06-22T14:54:30;16.20;1.00
1361;DHT22;674;45.552;-122.600;2023-06-22T14:56:58;16.30;1.00
1361;DHT22;674;45.552;-122.600;2023-06-22T14:59:26;16.30;1.00
1361;DHT22;674;45.552;-122.600;2023-06-22T15:01:54;16.40;1.00
1361;DHT22;674;45.552;-122.600;2023-06-22T15:04:22;16.40;1.00
1361;DHT22;674;45.552;-122.600;2023-06-22T15:06:51;16.40;1.00
1361;DHT22;674;45.552;-122.600;2023-06-22T15:09:19;16.50;1.00
1361;DHT22;674;45.552;-122.600;2023-06-22T15:11:47;16.50;1.00
1361;DHT22;674;45.552;-122.600;2023-06-22T15:14:15;16.60;1.00
1361;DHT22;674;45.552;-122.600;2023-06-22T15:16:43;16.70;1.00
1361;DHT22;674;45.552;-122.600;2023-06-22T15:19:11;16.80;1.00
1361;DHT22;674;45.552;-122.600;2023-06-22T15:21:40;16.90;1.00
1361;DHT22;674;45.552;-122.600;2023-06-22T15:24:08;17.00;1.00
1361;DHT22;674;45.552;-122.600;2023-06-22T15:26:36;17.00;1.00
1361;DHT22;674;45.552;-122.600;2023-06-22T15:29:05;17.00;1.00
1361;DHT22;674;45.552;-122.600;2023-06-22T15:31:33;17.00;1.00
1361;DHT22;674;45.552;-122.600;2023-06-22T15:34:01;17.10;1.00
1361;DHT22;674;45.552;-122.600;2023-06-22T15:36:31;17.20;1.00
1361;DHT22;674;45.552;-122.600;2023-06-22T15:38:59;17.30;1.00
1361;DHT22;674;45.552;-122.600;2023-06-22T15:41:27;17.40;1.00
1361;DHT22;674;45.552;-122.600;2023-06-22T15:43:56;17.40;1.00
1361;DHT22;674;45.552;-122.600;2023-06-22T15:46:24;17.60;1.00
1361;DHT22;674;45.552;-122.600;2023-06-22T15:48:52;17.60;1.00
1361;DHT22;674;45.552;-122.600;2023-06-22T15:51:22;17.70;1.00
1361;DHT22;674;45.552;-122.600;2023-06-22T15:53:50;17.70;1.00
1361;DHT22;674;45.552;-122.600;2023-06-22T15:56:18;17.80;1.00
1361;DHT22;674;45.552;-122.600;2023-06-22T15:58:48;17.80;1.00
1361;DHT22;674;45.552;-122.600;2023-06-22T16:01:16;17.90;1.00